Hauptseite
METAR-TAF:

METAR-TAF

Flughäfen :

Flughafen Kos

Kos, Griechenland

Breite: 36-47N, Länge: 027-04E, Höhe: 129 m

Beobachtung

Neuester Wetterbericht von vor 26 Minuten, um 15:50 UTC
Temperatur 16°C
Luftfeuchtigkeit 51%
Luftdruck 1012 hPa
Sichtweite 10 km oder mehr
keine Wolken unter 1500 m und keine Kumulonimbus oder Gewitterwolken

METAR: LGKO 241550Z /////KT CAVOK 16/06 Q1012

Zeit: 18:16 (16:16 UTC)

Prognose

Neuester Wetterbericht von vor 5 Stunden und 16 Minuten, um 11:00 UTC
Gültige Prognose vom 24 um 12 UTC bis 25 um 12 UTC
Wind 12 kt aus Nord/Nordwest
Sichtweite 10 km oder mehr
Leicht bewölkt in der Höhe von 1800 ft

TAF: LGKO 241100Z 2412/2512 34012KT 9999 FEW018

Wetterbeobachtungen und Prognosen von mehr als 4000 Flughäfen (METAR und TAF Bericht).

Die verfügbaren Stationen werden durch gelbe und rote Markierungen auf der Karte dargestellt.

Führen Sie die Maus auf sie, um den Namen der Station zu sehen.

Darauf klicken, um die Beobachtung von Wetterbeobachtungen und Prognosen zu sehen.

Um die Karte zu ändern : klicken Sie auf den grünen Tasten mit einem schwarzen Kreuz Zum Vergrößern, auf den grünen Button mit einem Gedankenstrich zu verkleinern, oder auf die grünen Pfeile für benachbarte Karten.


METAR-TAF: